Terminal Aerodrome Forecast
Issued by NWS

Home | Current Version | Previous Version | Graphics & Text | Print | Product List | Glossary On
Versions: 1 2 3 4 5 6 7 8 9 10 11 12 13 14 15 16 17 18 19 20 21 22 23 24 25 26 27 28 29 30 31 32 33 34 35
000
FTUS43 KLOT 281952 AAA
TAFORD
TAF AMD
KORD 281952Z 2820/2924 21005KT P6SM FEW050 BKN120 BKN250
     FM282130 15007KT P6SM SCT045 BKN120
     FM290000 14008KT P6SM -SHRA OVC060
     FM290300 13010KT 4SM -SHRA SCT025 OVC035
     FM291000 08009KT 5SM -SHRA BR SCT005 OVC008
     FM291400 08008KT P6SM SCT008 OVC015
     FM292000 05008KT P6SM SCT020 BKN250=

USA.gov is the U.S. government's official web portal to all federal, state and local government web resources and services.